KILE/ILE METAR and TAF weather

Enter ICAO airport designator
Station Type Date Time Source
KILE METAR 2021/03/01 10:56 UTC NOAA

KILE 011056Z AUTO 36017G29KT 10SM -RA OVC037 09/03 A3008 RMK AO2 PK WND 36029/1050 LTG DSNT NE RAE07B35 PRESRR SLP178 P0000 T00940033


Station Type Date Time Source
KILE Decoded METAR 2021/03/01 10:56 UTC NOAA

Killeen, Skylark Field Airport, TX, United States (KILE) 31-05N 097-41W
Mar 01, 2021 - 05:56 AM EST / 2021.03.01 1056 UTC
Wind: from the N (360 degrees) at 20 MPH (17 KT) gusting to 33 MPH (29 KT):0
Visibility: 10 mile(s):0
Sky conditions: overcast
Weather: light rain; Lightning observed
Precipitation last hour: A trace
Temperature: 48.9 F (9.4 C)
Dew Point: 37.9 F (3.3 C)
Relative Humidity: 65%
Pressure (altimeter): 30.08 in. Hg (1018 hPa)
Pressure tendency: rising rapidly
ob: KILE 011056Z AUTO 36017G29KT 10SM -RA OVC037 09/03 A3008 RMK AO2 PK WND 36029/1050 LTG DSNT NE RAE07B35 PRESRR SLP178 P0000 T00940033
cycle: 11

Station Type Date Time Source
KILE TAF UTC NOAA

Error!

Example: see airport list